Time,TemperatureF,DewpointF,PressureIn,WindDirection,WindDirectionDegrees,WindSpeedMPH,WindSpeedGustMPH,Humidity,HourlyPrecipIn,Conditions,Clouds,dailyrainin,SoftwareType,DateUTC
2013-04-12 00:03:00,48.0,41.0,29.78,North,360,7.0,16.0,78,0.00,,,1.71,,2013-04-12 05:03:00,
2013-04-12 00:12:00,48.0,41.0,29.78,North,360,7.0,16.0,78,0.00,,,1.71,,2013-04-12 05:12:00,
2013-04-12 00:23:00,47.0,41.0,29.78,NNW,341,8.0,15.0,78,0.00,,,1.71,,2013-04-12 05:23:00,
2013-04-12 00:32:00,46.0,40.0,29.79,NW,319,5.0,15.0,79,0.00,,,1.71,,2013-04-12 05:32:00,
2013-04-12 00:42:00,46.0,40.0,29.79,NW,319,5.0,15.0,79,0.00,,,1.71,,2013-04-12 05:42:00,
2013-04-12 00:52:00,45.0,39.0,29.80,NNW,342,2.0,11.0,80,0.00,,,1.71,,2013-04-12 05:52:00,
2013-04-12 01:02:00,45.0,39.0,29.81,NW,314,4.0,13.0,80,0.00,,,1.71,,2013-04-12 06:02:00,
2013-04-12 01:12:00,45.0,39.0,29.81,NW,314,4.0,13.0,80,0.00,,,1.71,,2013-04-12 06:12:00,
2013-04-12 01:22:00,44.0,38.0,29.80,NNW,331,5.0,11.0,78,0.00,,,1.71,,2013-04-12 06:22:00,
2013-04-12 01:32:00,43.0,37.0,29.81,NW,319,2.0,9.0,80,0.00,,,1.65,,2013-04-12 06:32:00,
2013-04-12 01:42:00,43.0,37.0,29.81,NW,319,2.0,9.0,80,0.00,,,1.65,,2013-04-12 06:42:00,
2013-04-12 01:52:00,43.0,37.0,29.81,NNW,327,5.0,12.0,78,0.00,,,1.65,,2013-04-12 06:52:00,
2013-04-12 02:01:00,42.0,36.0,29.81,NW,319,2.0,6.0,80,0.00,,,1.65,,2013-04-12 07:01:00,
2013-04-12 02:11:00,42.0,36.0,29.81,NW,319,2.0,6.0,80,0.00,,,1.65,,2013-04-12 07:11:00,
2013-04-12 02:22:00,42.0,36.0,29.81,NW,310,0.0,3.0,80,0.00,,,1.65,,2013-04-12 07:22:00,
2013-04-12 02:32:00,41.0,36.0,29.81,NW,312,2.0,5.0,81,0.00,,,1.59,,2013-04-12 07:32:00,
2013-04-12 02:42:00,41.0,36.0,29.81,NW,312,2.0,5.0,81,0.00,,,1.59,,2013-04-12 07:42:00,
2013-04-12 02:52:00,41.0,36.0,29.80,NW,323,0.0,3.0,81,0.00,,,1.59,,2013-04-12 07:52:00,
2013-04-12 03:03:00,41.0,36.0,29.80,NW,323,0.0,1.0,81,0.00,,,1.59,,2013-04-12 08:03:00,
2013-04-12 03:12:00,41.0,36.0,29.80,NW,323,0.0,1.0,81,0.00,,,1.59,,2013-04-12 08:12:00,
2013-04-12 03:22:00,40.0,35.0,29.81,NW,323,0.0,0.0,82,0.00,,,1.59,,2013-04-12 08:22:00,
2013-04-12 03:32:00,40.0,36.0,29.81,NW,323,0.0,0.0,84,0.00,,,1.38,,2013-04-12 08:32:00,
2013-04-12 03:42:00,40.0,36.0,29.81,NW,323,0.0,0.0,84,0.00,,,1.38,,2013-04-12 08:42:00,
2013-04-12 03:52:00,39.0,35.0,29.81,NW,323,0.0,0.0,85,0.00,,,1.38,,2013-04-12 08:52:00,
2013-04-12 04:02:00,39.0,35.0,29.82,NW,323,0.0,0.0,85,0.00,,,1.38,,2013-04-12 09:02:00,
2013-04-12 04:12:00,39.0,35.0,29.82,NW,323,0.0,0.0,85,0.00,,,1.38,,2013-04-12 09:12:00,
2013-04-12 04:22:00,38.0,34.0,29.83,NW,323,0.0,0.0,86,0.00,,,1.38,,2013-04-12 09:22:00,
2013-04-12 04:32:00,38.0,34.0,29.83,NW,323,0.0,0.0,86,0.00,,,1.08,,2013-04-12 09:32:00,
2013-04-12 04:43:00,38.0,34.0,29.83,NW,323,0.0,0.0,86,0.00,,,1.08,,2013-04-12 09:43:00,
2013-04-12 04:53:00,38.0,34.0,29.84,NW,323,0.0,0.0,87,0.00,,,1.08,,2013-04-12 09:53:00,
2013-04-12 05:03:00,38.0,34.0,29.84,NW,323,0.0,0.0,87,0.00,,,1.08,,2013-04-12 10:03:00,
2013-04-12 05:12:00,38.0,34.0,29.84,NW,323,0.0,0.0,87,0.00,,,1.08,,2013-04-12 10:12:00,
2013-04-12 05:23:00,37.0,34.0,29.85,NW,323,0.0,0.0,89,0.00,,,1.08,,2013-04-12 10:23:00,
2013-04-12 05:34:00,37.0,34.0,29.85,NW,323,0.0,0.0,90,0.00,,,0.98,,2013-04-12 10:34:00,
2013-04-12 05:42:00,37.0,34.0,29.85,NW,323,0.0,0.0,90,0.00,,,0.98,,2013-04-12 10:42:00,
2013-04-12 05:53:00,37.0,34.0,29.85,NW,323,0.0,1.0,90,0.00,,,0.98,,2013-04-12 10:53:00,
2013-04-12 06:02:00,37.0,34.0,29.86,NW,323,0.0,1.0,90,0.00,,,0.98,,2013-04-12 11:02:00,
2013-04-12 06:13:00,37.0,34.0,29.86,NW,323,0.0,1.0,90,0.00,,,0.98,,2013-04-12 11:13:00,
2013-04-12 06:22:00,37.0,34.0,29.86,NW,323,0.0,0.0,90,0.00,,,0.98,,2013-04-12 11:22:00,
2013-04-12 06:32:00,36.0,34.0,29.87,NW,323,0.0,0.0,91,0.00,,,0.93,,2013-04-12 11:32:00,
2013-04-12 06:42:00,36.0,34.0,29.87,NW,323,0.0,0.0,91,0.00,,,0.93,,2013-04-12 11:42:00,
2013-04-12 06:52:00,36.0,34.0,29.87,NW,323,0.0,0.0,92,0.00,,,0.93,,2013-04-12 11:52:00,
2013-04-12 07:02:00,36.0,34.0,29.87,ENE,58,0.0,2.0,92,0.00,,,0.93,,2013-04-12 12:02:00,
2013-04-12 07:13:00,36.0,34.0,29.87,ENE,58,0.0,2.0,92,0.00,,,0.93,,2013-04-12 12:13:00,
2013-04-12 07:22:00,37.0,35.0,29.88,ENE,58,0.0,2.0,92,0.00,,,0.93,,2013-04-12 12:22:00,
2013-04-12 07:32:00,39.0,36.0,29.88,NE,56,0.0,1.0,89,0.00,,,0.91,,2013-04-12 12:32:00,
2013-04-12 07:42:00,39.0,36.0,29.88,NE,56,0.0,1.0,89,0.00,,,0.91,,2013-04-12 12:42:00,
2013-04-12 07:53:00,41.0,37.0,29.88,NE,56,0.0,0.0,86,0.00,,,0.91,,2013-04-12 12:53:00,
2013-04-12 08:03:00,42.0,38.0,29.88,WNW,299,0.0,1.0,84,0.00,,,0.91,,2013-04-12 13:03:00,
2013-04-12 08:12:00,42.0,38.0,29.88,WNW,299,0.0,1.0,84,0.00,,,0.91,,2013-04-12 13:12:00,
2013-04-12 08:22:00,43.0,38.0,29.88,West,261,1.0,4.0,83,0.00,,,0.91,,2013-04-12 13:22:00,
2013-04-12 08:32:00,44.0,39.0,29.88,SW,230,0.0,4.0,81,0.00,,,0.87,,2013-04-12 13:32:00,
2013-04-12 08:42:00,44.0,39.0,29.88,SW,230,0.0,4.0,81,0.00,,,0.87,,2013-04-12 13:42:00,
2013-04-12 08:53:00,46.0,40.0,29.89,WNW,302,1.0,7.0,78,0.00,,,0.87,,2013-04-12 13:53:00,
2013-04-12 09:03:00,47.0,39.0,29.89,SW,234,1.0,5.0,74,0.00,,,0.87,,2013-04-12 14:03:00,
2013-04-12 09:12:00,47.0,39.0,29.89,SW,234,1.0,5.0,74,0.00,,,0.87,,2013-04-12 14:12:00,
2013-04-12 09:22:00,48.0,38.0,29.89,SW,236,4.0,9.0,69,0.00,,,0.87,,2013-04-12 14:22:00,
2013-04-12 09:32:00,49.0,38.0,29.89,SW,229,2.0,7.0,66,0.00,,,0.77,,2013-04-12 14:32:00,
2013-04-12 09:42:00,49.0,38.0,29.89,SW,229,2.0,7.0,66,0.00,,,0.77,,2013-04-12 14:42:00,
2013-04-12 09:53:00,50.0,38.0,29.90,NW,311,4.0,8.0,64,0.00,,,0.77,,2013-04-12 14:53:00,
2013-04-12 10:02:00,50.0,39.0,29.90,WNW,289,3.0,12.0,65,0.00,,,0.77,,2013-04-12 15:02:00,
2013-04-12 10:12:00,50.0,39.0,29.90,WNW,289,3.0,12.0,65,0.00,,,0.77,,2013-04-12 15:12:00,
2013-04-12 10:22:00,50.0,38.0,29.90,NW,319,5.0,13.0,63,0.00,,,0.77,,2013-04-12 15:22:00,
2013-04-12 10:33:00,51.0,39.0,29.90,NNW,329,4.0,13.0,63,0.00,,,0.62,,2013-04-12 15:33:00,
2013-04-12 10:43:00,51.0,39.0,29.90,NNW,329,4.0,13.0,63,0.00,,,0.62,,2013-04-12 15:43:00,
2013-04-12 10:53:00,52.0,39.0,29.89,SW,232,2.0,10.0,62,0.00,,,0.62,,2013-04-12 15:53:00,
2013-04-12 11:03:00,53.0,39.0,29.90,SW,221,4.0,12.0,59,0.00,,,0.62,,2013-04-12 16:03:00,
2013-04-12 11:13:00,53.0,39.0,29.90,SW,221,4.0,12.0,59,0.00,,,0.62,,2013-04-12 16:13:00,
2013-04-12 11:23:00,53.0,39.0,29.90,West,263,2.0,7.0,59,0.00,,,0.62,,2013-04-12 16:23:00,
2013-04-12 11:33:00,54.0,39.0,29.90,WSW,246,3.0,10.0,57,0.00,,,0.37,,2013-04-12 16:33:00,
2013-04-12 11:42:00,54.0,39.0,29.90,WSW,246,3.0,10.0,57,0.00,,,0.37,,2013-04-12 16:42:00,
2013-04-12 11:53:00,55.0,41.0,29.90,WSW,241,2.0,9.0,59,0.00,,,0.37,,2013-04-12 16:53:00,
2013-04-12 12:03:00,55.0,40.0,29.90,SW,224,3.0,7.0,56,0.00,,,0.37,,2013-04-12 17:03:00,
2013-04-12 12:12:00,55.0,40.0,29.90,SW,224,3.0,7.0,56,0.00,,,0.37,,2013-04-12 17:12:00,
2013-04-12 12:23:00,54.0,40.0,29.90,NW,309,3.0,7.0,58,0.00,,,0.37,,2013-04-12 17:23:00,
2013-04-12 12:33:00,54.0,40.0,29.89,NNW,335,2.0,10.0,58,0.00,,,0.28,,2013-04-12 17:33:00,
2013-04-12 12:44:00,54.0,40.0,29.89,NNW,335,2.0,10.0,58,0.00,,,0.28,,2013-04-12 17:44:00,
2013-04-12 13:05:00,55.0,40.0,29.89,NW,307,5.0,12.0,56,0.00,,,0.28,,2013-04-12 18:05:00,
2013-04-12 14:26:00,56.0,41.0,29.90,NW,307,5.0,14.0,56,0.00,,,0.24,,2013-04-12 19:26:00,
2013-04-12 14:32:00,55.0,40.0,29.91,West,259,7.0,13.0,56,0.00,,,0.14,,2013-04-12 19:32:00,
2013-04-12 14:43:00,55.0,40.0,29.91,West,259,7.0,13.0,56,0.00,,,0.14,,2013-04-12 19:43:00,
2013-04-12 14:53:00,56.0,41.0,29.91,West,267,4.0,9.0,57,0.00,,,0.14,,2013-04-12 19:53:00,
2013-04-12 15:02:00,56.0,39.0,29.91,West,279,8.0,18.0,53,0.00,,,0.14,,2013-04-12 20:02:00,
2013-04-12 15:12:00,56.0,39.0,29.91,West,279,8.0,18.0,53,0.00,,,0.14,,2013-04-12 20:12:00,
2013-04-12 15:22:00,56.0,40.0,29.91,NW,318,7.0,15.0,54,0.00,,,0.14,,2013-04-12 20:22:00,
2013-04-12 15:32:00,57.0,40.0,29.91,West,263,5.0,17.0,52,0.00,,,0.03,,2013-04-12 20:32:00,
2013-04-12 15:42:00,57.0,40.0,29.91,West,263,5.0,17.0,52,0.00,,,0.03,,2013-04-12 20:42:00,
2013-04-12 15:52:00,57.0,40.0,29.91,West,273,5.0,17.0,52,0.00,,,0.03,,2013-04-12 20:52:00,
2013-04-12 16:02:00,58.0,41.0,29.91,WNW,288,4.0,13.0,53,0.00,,,0.03,,2013-04-12 21:02:00,
2013-04-12 16:12:00,58.0,41.0,29.91,WNW,288,4.0,13.0,53,0.00,,,0.03,,2013-04-12 21:12:00,
2013-04-12 16:22:00,58.0,40.0,29.91,WNW,290,4.0,10.0,52,0.00,,,0.03,,2013-04-12 21:22:00,
2013-04-12 16:33:00,56.0,40.0,29.91,NNE,19,4.0,11.0,55,0.00,,,0.00,,2013-04-12 21:33:00,
2013-04-12 16:43:00,56.0,40.0,29.91,NNE,19,4.0,11.0,55,0.00,,,0.00,,2013-04-12 21:43:00,
2013-04-12 16:53:00,57.0,41.0,29.91,WNW,296,2.0,10.0,55,0.00,,,0.00,,2013-04-12 21:53:00,
2013-04-12 17:02:00,57.0,40.0,29.92,NW,323,4.0,12.0,53,0.00,,,0.00,,2013-04-12 22:02:00,
2013-04-12 17:13:00,57.0,40.0,29.92,NW,323,4.0,12.0,53,0.00,,,0.00,,2013-04-12 22:13:00,
2013-04-12 17:22:00,58.0,41.0,29.92,WNW,284,4.0,9.0,54,0.00,,,0.00,,2013-04-12 22:22:00,
2013-04-12 17:32:00,58.0,42.0,29.92,SW,232,2.0,12.0,55,0.00,,,0.00,,2013-04-12 22:32:00,
2013-04-12 17:42:00,58.0,42.0,29.92,SW,232,2.0,12.0,55,0.00,,,0.00,,2013-04-12 22:42:00,
2013-04-12 17:52:00,58.0,40.0,29.92,SW,228,4.0,11.0,51,0.00,,,0.00,,2013-04-12 22:52:00,
2013-04-12 18:03:00,57.0,40.0,29.92,WNW,284,3.0,8.0,53,0.00,,,0.00,,2013-04-12 23:03:00,
2013-04-12 18:12:00,57.0,40.0,29.92,WNW,284,3.0,8.0,53,0.00,,,0.00,,2013-04-12 23:12:00,
2013-04-12 18:22:00,57.0,41.0,29.92,NW,307,3.0,9.0,54,0.00,,,0.00,,2013-04-12 23:22:00,
2013-04-12 18:32:00,57.0,41.0,29.93,NW,321,3.0,7.0,55,0.00,,,0.00,,2013-04-12 23:32:00,
2013-04-12 18:42:00,57.0,41.0,29.93,NW,321,3.0,7.0,55,0.00,,,0.00,,2013-04-12 23:42:00,
2013-04-12 18:52:00,56.0,41.0,29.93,NW,322,2.0,6.0,56,0.00,,,0.00,,2013-04-12 23:52:00,
2013-04-12 19:02:00,57.0,41.0,29.93,NW,317,2.0,6.0,56,0.00,,,0.00,,2013-04-13 00:02:00,
2013-04-12 19:12:00,57.0,41.0,29.93,NW,317,2.0,6.0,56,0.00,,,0.00,,2013-04-13 00:12:00,
2013-04-12 19:22:00,57.0,41.0,29.94,NW,322,2.0,7.0,55,0.00,,,0.00,,2013-04-13 00:22:00,
2013-04-12 19:32:00,56.0,39.0,29.94,NNE,19,4.0,8.0,53,0.00,,,0.00,,2013-04-13 00:32:00,
2013-04-12 19:42:00,56.0,39.0,29.94,NNE,19,4.0,8.0,53,0.00,,,0.00,,2013-04-13 00:42:00,
2013-04-12 19:52:00,54.0,40.0,29.95,NE,36,1.0,8.0,58,0.00,,,0.00,,2013-04-13 00:52:00,
2013-04-12 20:02:00,52.0,39.0,29.96,NNE,28,1.0,4.0,60,0.00,,,0.00,,2013-04-13 01:02:00,
2013-04-12 20:12:00,52.0,39.0,29.96,NNE,28,1.0,4.0,60,0.00,,,0.00,,2013-04-13 01:12:00,
2013-04-12 20:22:00,51.0,38.0,29.97,NNE,30,2.0,5.0,61,0.00,,,0.00,,2013-04-13 01:22:00,
2013-04-12 20:32:00,50.0,38.0,29.98,NE,34,1.0,7.0,62,0.00,,,0.00,,2013-04-13 01:32:00,
2013-04-12 20:42:00,50.0,38.0,29.98,NE,34,1.0,7.0,62,0.00,,,0.00,,2013-04-13 01:42:00,
2013-04-12 20:52:00,49.0,37.0,29.99,NE,51,1.0,5.0,63,0.00,,,0.00,,2013-04-13 01:52:00,
2013-04-12 21:02:00,49.0,37.0,29.99,NNE,28,0.0,6.0,64,0.00,,,0.00,,2013-04-13 02:02:00,
2013-04-12 21:12:00,49.0,37.0,29.99,NNE,28,0.0,6.0,64,0.00,,,0.00,,2013-04-13 02:12:00,
2013-04-12 21:22:00,48.0,37.0,30.00,NE,43,1.0,4.0,65,0.00,,,0.00,,2013-04-13 02:22:00,
2013-04-12 21:32:00,47.0,36.0,30.01,NE,49,1.0,5.0,65,0.00,,,0.00,,2013-04-13 02:32:00,
2013-04-12 21:42:00,47.0,36.0,30.01,NE,49,1.0,5.0,65,0.00,,,0.00,,2013-04-13 02:42:00,
2013-04-12 21:53:00,47.0,36.0,30.02,NNE,30,2.0,5.0,66,0.00,,,0.00,,2013-04-13 02:53:00,
2013-04-12 22:02:00,46.0,36.0,30.03,NNE,31,2.0,5.0,67,0.00,,,0.00,,2013-04-13 03:02:00,
2013-04-12 22:12:00,46.0,36.0,30.03,NNE,31,2.0,5.0,67,0.00,,,0.00,,2013-04-13 03:12:00,
2013-04-12 22:23:00,46.0,36.0,30.04,NNE,26,1.0,9.0,68,0.00,,,0.00,,2013-04-13 03:23:00,
2013-04-12 22:33:00,45.0,35.0,30.05,NE,52,2.0,7.0,68,0.00,,,0.00,,2013-04-13 03:33:00,
2013-04-12 22:42:00,45.0,35.0,30.05,NE,52,2.0,7.0,68,0.00,,,0.00,,2013-04-13 03:42:00,
2013-04-12 22:53:00,45.0,35.0,30.06,North,355,0.0,4.0,68,0.00,,,0.00,,2013-04-13 03:53:00,
2013-04-12 23:03:00,44.0,34.0,30.06,NNE,20,1.0,4.0,69,0.00,,,0.00,,2013-04-13 04:03:00,
2013-04-12 23:12:00,44.0,34.0,30.06,NNE,20,1.0,4.0,69,0.00,,,0.00,,2013-04-13 04:12:00,
2013-04-12 23:23:00,44.0,35.0,30.07,NNE,21,0.0,4.0,70,0.00,,,0.00,,2013-04-13 04:23:00,
2013-04-12 23:33:00,43.0,34.0,30.07,NNE,17,0.0,2.0,70,0.00,,,0.00,,2013-04-13 04:33:00,
2013-04-12 23:42:00,43.0,34.0,30.07,NNE,17,0.0,2.0,70,0.00,,,0.00,,2013-04-13 04:42:00,
2013-04-12 23:53:00,43.0,34.0,30.08,NNE,17,0.0,1.0,70,0.00,,,0.00,,2013-04-13 04:53:00,